Time;durP1;ratioP1;P1;durP2;ratioP2;P2;SDS_P1;SDS_P2;PMS_P1;PMS_P2;Temp;Humidity;BMP_temperature;BMP_pressure;BME280_temperature;BME280_humidity;BME280_pressure;Samples;Min_cycle;Max_cycle;Signal;HPM_P1;HPM_P2
2022/03/02 00:02:10;;;;;;;;;;;5.30;99.90;;;;;;5070433;28;19931;-68
2022/03/02 00:04:36;;;;;;;;;;;5.30;99.90;;;;;;5070451;28;19931;-68
2022/03/02 00:07:02;;;;;;;;;;;5.30;99.90;;;;;;5070207;28;19969;-68
2022/03/02 00:09:29;;;;;;;;;;;5.30;99.90;;;;;;5053798;28;19946;-68
2022/03/02 00:11:54;;;;;;;;;;;5.20;99.90;;;;;;5070576;28;19947;-68
2022/03/02 00:14:20;;;;;;;;;;;5.30;99.90;;;;;;5053440;28;19925;-68
2022/03/02 00:16:45;;;;;;;;;;;5.30;99.90;;;;;;5070568;28;20007;-68
2022/03/02 00:19:11;;;;;;;;;;;5.20;99.90;;;;;;5053210;28;19970;-69
2022/03/02 00:21:37;;;;;;;;;;;5.20;99.90;;;;;;5070897;28;19924;-68
2022/03/02 00:24:03;;;;;;;;;;;5.20;99.90;;;;;;5040566;28;19931;-69
2022/03/02 00:26:30;;;;;;;;;;;5.20;99.90;;;;;;5074205;28;19929;-68
2022/03/02 00:28:56;;;;;;;;;;;5.20;99.90;;;;;;5057024;28;20298;-68
2022/03/02 00:31:21;;;;;;;;;;;5.10;99.90;;;;;;5056998;28;19920;-68
2022/03/02 00:33:47;;;;;;;;;;;5.10;99.90;;;;;;5075161;28;20082;-68
2022/03/02 00:36:13;;;;;;;;;;;5.10;99.90;;;;;;5056643;28;19947;-68
2022/03/02 00:38:38;;;;;;;;;;;5.10;99.90;;;;;;5073863;28;19924;-67
2022/03/02 00:41:05;;;;;;;;;;;5.10;99.90;;;;;;5040128;28;19931;-69
2022/03/02 00:43:30;;;;;;;;;;;5.10;99.90;;;;;;5057313;28;19931;-68
2022/03/02 00:45:56;;;;;;;;;;;5.10;99.90;;;;;;5073749;28;19924;-68
2022/03/02 00:48:22;;;;;;;;;;;5.00;99.90;;;;;;5073380;28;20023;-67
2022/03/02 00:50:47;;;;;;;;;;;5.10;99.90;;;;;;5056788;28;20303;-69
2022/03/02 00:53:13;;;;;;;;;;;5.10;99.90;;;;;;5072710;28;19931;-68
2022/03/02 00:55:39;;;;;;;;;;;5.10;99.90;;;;;;5073818;28;19940;-68
2022/03/02 00:58:05;;;;;;;;;;;5.00;99.90;;;;;;5056093;28;19924;-71
2022/03/02 01:00:31;;;;;;;;;;;5.00;99.90;;;;;;5057007;28;19928;-68
2022/03/02 01:02:57;;;;;;;;;;;5.00;99.90;;;;;;5073238;28;19924;-68
2022/03/02 01:05:23;;;;;;;;;;;4.90;99.90;;;;;;5073127;28;20040;-68
2022/03/02 01:07:49;;;;;;;;;;;4.90;99.90;;;;;;5073571;28;19924;-68
2022/03/02 01:10:16;;;;;;;;;;;4.90;99.90;;;;;;5072970;28;20349;-68
2022/03/02 01:12:42;;;;;;;;;;;4.90;99.90;;;;;;5073461;28;19930;-68
2022/03/02 01:15:08;;;;;;;;;;;4.90;99.90;;;;;;5073147;28;19924;-69
2022/03/02 01:17:34;;;;;;;;;;;4.80;99.90;;;;;;5074380;28;19924;-68
2022/03/02 01:19:59;;;;;;;;;;;4.80;99.90;;;;;;5073009;28;20023;-68
2022/03/02 01:22:27;;;;;;;;;;;4.80;99.90;;;;;;5073891;28;19970;-68
2022/03/02 01:24:55;;;;;;;;;;;4.80;99.90;;;;;;5073131;28;19932;-68
2022/03/02 01:27:21;;;;;;;;;;;4.80;99.90;;;;;;5072869;28;20018;-68
2022/03/02 01:29:46;;;;;;;;;;;4.80;99.90;;;;;;5039387;28;20011;-68
2022/03/02 01:32:12;;;;;;;;;;;4.80;99.90;;;;;;5055863;28;19925;-68
2022/03/02 01:34:38;;;;;;;;;;;4.80;99.90;;;;;;5056045;28;19932;-67
2022/03/02 01:37:04;;;;;;;;;;;4.90;99.90;;;;;;5072953;28;20290;-68
2022/03/02 01:39:30;;;;;;;;;;;4.70;99.90;;;;;;5072946;28;19928;-68
2022/03/02 01:41:56;;;;;;;;;;;4.80;99.90;;;;;;5056160;28;20318;-68
2022/03/02 01:44:21;;;;;;;;;;;4.80;99.90;;;;;;5055374;28;19924;-68
2022/03/02 01:46:47;;;;;;;;;;;4.80;99.90;;;;;;5074172;28;20011;-67
2022/03/02 01:49:13;;;;;;;;;;;4.80;99.90;;;;;;5071836;28;19932;-68
2022/03/02 01:51:39;;;;;;;;;;;4.70;99.90;;;;;;5072549;28;19932;-67
2022/03/02 01:54:05;;;;;;;;;;;4.70;99.90;;;;;;5106384;28;19931;-69
2022/03/02 01:56:31;;;;;;;;;;;4.70;99.90;;;;;;5071897;28;19956;-68
2022/03/02 01:58:57;;;;;;;;;;;4.70;99.90;;;;;;5073550;28;19924;-67
2022/03/02 02:01:23;;;;;;;;;;;4.80;99.90;;;;;;5071979;28;20278;-67
2022/03/02 02:03:48;;;;;;;;;;;4.70;99.90;;;;;;5055804;28;19925;-67
2022/03/02 02:06:14;;;;;;;;;;;4.70;99.90;;;;;;5071970;28;19924;-68
2022/03/02 02:08:41;;;;;;;;;;;4.70;99.90;;;;;;5106032;28;20011;-68
2022/03/02 02:11:08;;;;;;;;;;;4.70;99.90;;;;;;5071384;28;19924;-68
2022/03/02 02:13:34;;;;;;;;;;;4.70;99.90;;;;;;5071866;28;19921;-68
2022/03/02 02:16:01;;;;;;;;;;;4.60;99.90;;;;;;5072123;28;20282;-67
2022/03/02 02:18:27;;;;;;;;;;;4.50;99.90;;;;;;5071684;28;19925;-67
2022/03/02 02:20:53;;;;;;;;;;;4.50;99.90;;;;;;5055166;28;19947;-67
2022/03/02 02:23:18;;;;;;;;;;;4.40;99.90;;;;;;5054837;28;19924;-67
2022/03/02 02:25:44;;;;;;;;;;;4.40;99.90;;;;;;5071522;28;19932;-68
2022/03/02 02:28:10;;;;;;;;;;;4.30;99.90;;;;;;5071815;28;20027;-68
2022/03/02 02:30:36;;;;;;;;;;;4.20;99.90;;;;;;5071178;28;20146;-67
2022/03/02 02:33:02;;;;;;;;;;;4.30;99.90;;;;;;5054926;28;19929;-67
2022/03/02 02:35:28;;;;;;;;;;;4.20;99.90;;;;;;5038190;28;20019;-68
2022/03/02 02:37:54;;;;;;;;;;;4.10;99.90;;;;;;5071702;28;19925;-68
2022/03/02 02:40:20;;;;;;;;;;;4.10;99.90;;;;;;5105097;28;19942;-68
2022/03/02 02:42:48;;;;;;;;;;;4.00;99.90;;;;;;5071247;28;19925;-68
2022/03/02 02:45:15;;;;;;;;;;;4.00;99.90;;;;;;5070638;28;20015;-68
2022/03/02 02:47:41;;;;;;;;;;;3.90;99.90;;;;;;5071157;28;19925;-68
2022/03/02 02:50:20;;;;;;;;;;;3.90;99.90;;;;;;5072534;28;19978;-68
2022/03/02 02:52:46;;;;;;;;;;;3.80;99.90;;;;;;5054608;28;19925;-68
2022/03/02 02:55:12;;;;;;;;;;;4.10;99.90;;;;;;5054845;28;19932;-68
2022/03/02 02:57:38;;;;;;;;;;;3.80;99.90;;;;;;5070268;28;20494;-68
2022/03/02 03:00:06;;;;;;;;;;;3.80;99.90;;;;;;5071214;28;19925;-67
2022/03/02 03:02:31;;;;;;;;;;;3.70;99.90;;;;;;5054221;28;19951;-68
2022/03/02 03:04:57;;;;;;;;;;;3.70;99.90;;;;;;5054558;28;19924;-67
2022/03/02 03:07:22;;;;;;;;;;;3.60;99.90;;;;;;5070653;28;19924;-68
2022/03/02 03:09:48;;;;;;;;;;;3.70;99.90;;;;;;5054149;28;19924;-68
2022/03/02 03:12:13;;;;;;;;;;;3.50;99.90;;;;;;5070994;28;19924;-67
2022/03/02 03:14:39;;;;;;;;;;;3.60;99.90;;;;;;5054046;28;19924;-67
2022/03/02 03:17:04;;;;;;;;;;;3.50;99.90;;;;;;5070901;28;20334;-68
2022/03/02 03:19:30;;;;;;;;;;;3.40;99.90;;;;;;5070605;28;19931;-67
2022/03/02 03:22:02;;;;;;;;;;;3.40;99.90;;;;;;5054343;28;20376;-67
2022/03/02 03:24:27;;;;;;;;;;;3.30;99.90;;;;;;5070507;28;19931;-67
2022/03/02 03:26:53;;;;;;;;;;;3.40;99.90;;;;;;5070629;28;19924;-67
2022/03/02 03:29:18;;;;;;;;;;;3.20;99.90;;;;;;5070566;28;19924;-67
2022/03/02 03:31:44;;;;;;;;;;;3.30;99.90;;;;;;5070439;28;19925;-67
2022/03/02 03:34:09;;;;;;;;;;;3.20;99.90;;;;;;5070863;28;19973;-67
2022/03/02 03:36:35;;;;;;;;;;;3.20;99.90;;;;;;5053619;28;20024;-67
2022/03/02 03:39:00;;;;;;;;;;;3.20;99.90;;;;;;5053596;28;19924;-67
2022/03/02 03:41:26;;;;;;;;;;;3.10;99.90;;;;;;5070325;28;19935;-68
2022/03/02 03:43:52;;;;;;;;;;;3.10;99.90;;;;;;5053525;28;19928;-68
2022/03/02 03:46:17;;;;;;;;;;;3.00;99.90;;;;;;5053894;28;19932;-68
2022/03/02 03:48:43;;;;;;;;;;;3.00;99.90;;;;;;5070217;28;19928;-69
2022/03/02 03:51:09;;;;;;;;;;;3.00;99.90;;;;;;5070129;28;19929;-67
2022/03/02 03:53:34;;;;;;;;;;;3.00;99.90;;;;;;5070118;28;20015;-67
2022/03/02 03:56:00;;;;;;;;;;;3.00;99.90;;;;;;5070503;28;20011;-67
2022/03/02 03:58:26;;;;;;;;;;;2.90;99.90;;;;;;5073262;28;19925;-68
2022/03/02 04:00:51;;;;;;;;;;;2.90;99.90;;;;;;5057663;28;20355;-67
2022/03/02 04:03:17;;;;;;;;;;;2.90;99.90;;;;;;5074585;28;19995;-67
2022/03/02 04:05:42;;;;;;;;;;;2.90;99.90;;;;;;5057423;28;20378;-68
2022/03/02 04:08:08;;;;;;;;;;;2.90;99.90;;;;;;5074414;28;19983;-67
2022/03/02 04:10:34;;;;;;;;;;;3.40;99.90;;;;;;5073477;28;19932;-67
2022/03/02 04:13:00;;;;;;;;;;;2.80;99.90;;;;;;5074325;28;19924;-67
2022/03/02 04:15:25;;;;;;;;;;;3.10;99.90;;;;;;5057640;28;19924;-67
2022/03/02 04:17:51;;;;;;;;;;;2.80;99.90;;;;;;5057131;28;19924;-67
2022/03/02 04:20:17;;;;;;;;;;;2.70;99.90;;;;;;5074087;28;19969;-67
2022/03/02 04:22:42;;;;;;;;;;;2.70;99.90;;;;;;5056869;28;19971;-67
2022/03/02 04:25:08;;;;;;;;;;;2.70;99.90;;;;;;5073879;28;19947;-67
2022/03/02 04:27:34;;;;;;;;;;;2.70;99.90;;;;;;5073422;28;20008;-68
2022/03/02 04:30:01;;;;;;;;;;;2.60;99.90;;;;;;5073636;28;20508;-67
2022/03/02 04:32:27;;;;;;;;;;;2.60;99.90;;;;;;5073857;28;19925;-66
2022/03/02 04:34:52;;;;;;;;;;;2.60;99.90;;;;;;5056771;28;20515;-67
2022/03/02 04:37:18;;;;;;;;;;;2.60;99.90;;;;;;5056687;28;20161;-67
2022/03/02 04:39:44;;;;;;;;;;;2.50;99.90;;;;;;5039925;28;19931;-67
2022/03/02 04:42:09;;;;;;;;;;;2.60;99.90;;;;;;5073759;28;20285;-67
2022/03/02 04:44:35;;;;;;;;;;;2.50;99.90;;;;;;5056571;28;19986;-67
2022/03/02 04:47:01;;;;;;;;;;;2.50;99.90;;;;;;5073587;28;19928;-67
2022/03/02 04:49:26;;;;;;;;;;;2.50;99.90;;;;;;5074549;28;20023;-67
2022/03/02 04:51:52;;;;;;;;;;;2.40;99.90;;;;;;5074114;28;19931;-66
2022/03/02 04:57:03;;;;;;;;;;;2.40;99.90;;;;;;5073085;28;19932;-68
2022/03/02 04:59:29;;;;;;;;;;;2.40;99.90;;;;;;5073350;28;19982;-67
2022/03/02 05:01:54;;;;;;;;;;;2.50;99.90;;;;;;5072693;28;19924;-68
2022/03/02 05:04:20;;;;;;;;;;;2.40;99.90;;;;;;5074299;28;20235;-69
2022/03/02 05:06:46;;;;;;;;;;;2.40;99.90;;;;;;5039467;28;19943;-68
2022/03/02 05:09:11;;;;;;;;;;;2.80;99.90;;;;;;5072397;28;19980;-68
2022/03/02 05:11:37;;;;;;;;;;;2.40;99.90;;;;;;5073568;28;19928;-68
2022/03/02 05:14:03;;;;;;;;;;;2.40;99.90;;;;;;5073001;28;19924;-67
2022/03/02 05:16:29;;;;;;;;;;;2.40;99.90;;;;;;5073212;28;19924;-67
2022/03/02 05:18:54;;;;;;;;;;;2.30;99.90;;;;;;5072730;28;19928;-67
2022/03/02 05:21:20;;;;;;;;;;;2.30;99.90;;;;;;5056168;28;20419;-67
2022/03/02 05:23:45;;;;;;;;;;;2.30;99.90;;;;;;5072555;28;19932;-67
2022/03/02 05:26:11;;;;;;;;;;;2.30;99.90;;;;;;5073005;28;20023;-67
2022/03/02 05:28:36;;;;;;;;;;;2.20;99.90;;;;;;5072614;28;19925;-71
2022/03/02 05:31:02;;;;;;;;;;;2.20;99.90;;;;;;5072506;28;20382;-67
2022/03/02 05:33:28;;;;;;;;;;;2.20;99.90;;;;;;5072773;28;19924;-67
2022/03/02 05:35:53;;;;;;;;;;;2.20;99.90;;;;;;5105901;28;19924;-66
2022/03/02 05:38:19;;;;;;;;;;;2.20;99.90;;;;;;5056149;28;19929;-66
2022/03/02 05:40:45;;;;;;;;;;;2.10;99.90;;;;;;5106124;28;19924;-66
2022/03/02 05:43:10;;;;;;;;;;;2.10;99.90;;;;;;5072273;28;19924;-66
2022/03/02 05:45:36;;;;;;;;;;;2.10;99.90;;;;;;5072674;28;20292;-66
2022/03/02 05:48:01;;;;;;;;;;;2.00;99.90;;;;;;5071822;28;19947;-65
2022/03/02 05:50:27;;;;;;;;;;;2.00;99.90;;;;;;5073292;28;19970;-65
2022/03/02 05:52:53;;;;;;;;;;;2.10;99.90;;;;;;5072063;28;19925;-66
2022/03/02 05:55:18;;;;;;;;;;;1.90;99.90;;;;;;5073340;28;19925;-66
2022/03/02 05:57:44;;;;;;;;;;;1.90;99.90;;;;;;5105462;28;19975;-66
2022/03/02 06:00:10;;;;;;;;;;;1.80;99.90;;;;;;5072153;28;19935;-66
2022/03/02 06:02:36;;;;;;;;;;;1.80;99.90;;;;;;5055562;28;20325;-66
2022/03/02 06:05:01;;;;;;;;;;;1.80;99.90;;;;;;5071658;28;19920;-66
2022/03/02 06:07:27;;;;;;;;;;;2.10;99.90;;;;;;5072156;28;20072;-66
2022/03/02 06:09:53;;;;;;;;;;;1.80;99.90;;;;;;5071511;28;19931;-66
2022/03/02 06:12:18;;;;;;;;;;;1.80;99.90;;;;;;5071408;28;20355;-66
2022/03/02 06:14:44;;;;;;;;;;;1.80;99.90;;;;;;5071664;28;20366;-66
2022/03/02 06:17:10;;;;;;;;;;;1.80;99.90;;;;;;5071687;28;19924;-65
2022/03/02 06:19:36;;;;;;;;;;;1.70;99.90;;;;;;5070930;28;19924;-66
2022/03/02 06:22:02;;;;;;;;;;;1.70;99.90;;;;;;5071347;28;19931;-66
2022/03/02 06:24:28;;;;;;;;;;;1.70;99.90;;;;;;5071695;28;19924;-66
2022/03/02 06:26:54;;;;;;;;;;;1.70;99.90;;;;;;5071167;28;19928;-66
2022/03/02 06:29:20;;;;;;;;;;;1.90;99.90;;;;;;5072616;28;19931;-66
2022/03/02 06:31:45;;;;;;;;;;;1.70;99.90;;;;;;5054541;28;19974;-70
2022/03/02 06:34:11;;;;;;;;;;;1.80;99.90;;;;;;5071461;28;19924;-67
2022/03/02 06:36:36;;;;;;;;;;;1.70;99.90;;;;;;5072529;28;20014;-68
2022/03/02 06:39:02;;;;;;;;;;;1.70;99.90;;;;;;5070969;28;19924;-66
2022/03/02 06:41:29;;;;;;;;;;;1.70;99.90;;;;;;5105368;28;20014;-66
2022/03/02 06:43:58;;;;;;;;;;;1.70;99.90;;;;;;5104735;28;20425;-66
2022/03/02 06:46:42;;;;;;;;;;;1.70;99.90;;;;;;5054616;28;19924;-66
2022/03/02 06:49:18;;;;;;;;;;;1.70;99.90;;;;;;5053941;28;19925;-66
2022/03/02 06:51:46;;;;;;;;;;;1.80;99.90;;;;;;5070376;28;19924;-66
2022/03/02 06:54:14;;;;;;;;;;;1.80;99.90;;;;;;5070633;28;19924;-66
2022/03/02 06:56:45;;;;;;;;;;;1.80;99.90;;;;;;5071762;28;20009;-67
2022/03/02 06:59:12;;;;;;;;;;;1.80;99.90;;;;;;5070186;28;19924;-66
2022/03/02 07:01:41;;;;;;;;;;;1.80;99.90;;;;;;5070855;28;19925;-65
2022/03/02 07:04:09;;;;;;;;;;;2.20;99.90;;;;;;5070241;28;19931;-65
2022/03/02 07:06:34;;;;;;;;;;;1.90;99.90;;;;;;5071969;28;19978;-65
2022/03/02 07:09:01;;;;;;;;;;;2.00;99.90;;;;;;5070087;28;19924;-65
2022/03/02 07:11:26;;;;;;;;;;;2.00;99.90;;;;;;5053868;28;20255;-65
2022/03/02 07:13:52;;;;;;;;;;;2.00;99.90;;;;;;5037017;28;19985;-65
2022/03/02 07:16:18;;;;;;;;;;;2.10;99.90;;;;;;5070539;28;20015;-66
2022/03/02 07:18:44;;;;;;;;;;;2.20;99.90;;;;;;5070480;28;19925;-65
2022/03/02 07:21:11;;;;;;;;;;;2.70;99.90;;;;;;5070271;28;19931;-65
2022/03/02 07:23:39;;;;;;;;;;;3.20;99.90;;;;;;5070676;28;19977;-66
2022/03/02 07:26:06;;;;;;;;;;;3.70;99.90;;;;;;5104350;28;20028;-65
2022/03/02 07:28:34;;;;;;;;;;;4.20;99.90;;;;;;5070199;28;19924;-65
2022/03/02 07:31:00;;;;;;;;;;;4.70;99.90;;;;;;5069174;28;20396;-64
2022/03/02 07:33:26;;;;;;;;;;;5.10;99.90;;;;;;5071382;28;19925;-64
2022/03/02 07:35:56;;;;;;;;;;;5.40;99.90;;;;;;5070177;28;19925;-70
2022/03/02 07:38:21;;;;;;;;;;;5.90;99.90;;;;;;5070552;28;19925;-64
2022/03/02 07:40:48;;;;;;;;;;;6.40;99.90;;;;;;5069811;28;20023;-64
2022/03/02 07:43:14;;;;;;;;;;;6.80;99.90;;;;;;5070026;28;19920;-65
2022/03/02 07:45:40;;;;;;;;;;;7.10;99.90;;;;;;5071281;28;19928;-64
2022/03/02 07:48:05;;;;;;;;;;;7.70;99.90;;;;;;5070910;28;20311;-65
2022/03/02 07:50:31;;;;;;;;;;;8.30;99.90;;;;;;5069861;28;19999;-66
2022/03/02 07:52:57;;;;;;;;;;;8.70;99.90;;;;;;5070998;28;19924;-67
2022/03/02 07:55:23;;;;;;;;;;;9.10;99.90;;;;;;5070111;28;20286;-64
2022/03/02 07:57:55;;;;;;;;;;;9.30;99.90;;;;;;5069689;28;19936;-64
2022/03/02 08:00:21;;;;;;;;;;;9.70;99.90;;;;;;5069572;28;20000;-65
2022/03/02 08:02:47;;;;;;;;;;;9.90;99.90;;;;;;5069435;28;20254;-66
2022/03/02 08:05:13;;;;;;;;;;;10.00;99.90;;;;;;5052204;28;19924;-67
2022/03/02 08:07:38;;;;;;;;;;;10.20;99.90;;;;;;5069173;28;19948;-66
2022/03/02 08:10:05;;;;;;;;;;;10.20;99.90;;;;;;5069478;28;20285;-65
2022/03/02 08:12:31;;;;;;;;;;;10.20;99.90;;;;;;5068442;28;19931;-66
2022/03/02 08:14:57;;;;;;;;;;;9.90;99.90;;;;;;5070390;28;19924;-71
2022/03/02 08:17:23;;;;;;;;;;;10.00;99.90;;;;;;5102833;28;19931;-66
2022/03/02 08:19:49;;;;;;;;;;;10.00;99.90;;;;;;5068675;28;20640;-69
2022/03/02 08:22:16;;;;;;;;;;;10.20;99.90;;;;;;5068448;28;20533;-67
2022/03/02 08:24:45;;;;;;;;;;;10.20;99.90;;;;;;5069193;28;20039;-69
2022/03/02 08:27:11;;;;;;;;;;;10.30;99.90;;;;;;5068816;28;20297;-66
2022/03/02 08:29:37;;;;;;;;;;;10.30;99.90;;;;;;5070816;28;19931;-68
2022/03/02 08:32:04;;;;;;;;;;;10.40;99.90;;;;;;5068155;28;19924;-67
2022/03/02 08:34:30;;;;;;;;;;;10.40;99.90;;;;;;5103148;28;19932;-66
2022/03/02 08:36:56;;;;;;;;;;;10.50;99.90;;;;;;5069930;28;19924;-65
2022/03/02 08:39:22;;;;;;;;;;;10.80;99.90;;;;;;5069361;28;19927;-70
2022/03/02 08:41:48;;;;;;;;;;;11.20;99.90;;;;;;5053108;28;19925;-67
2022/03/02 08:44:14;;;;;;;;;;;11.40;99.90;;;;;;5055375;28;20286;-65
2022/03/02 08:46:40;;;;;;;;;;;11.70;99.90;;;;;;5074627;28;20027;-67
2022/03/02 08:49:06;;;;;;;;;;;11.90;99.90;;;;;;5073570;28;19978;-67
2022/03/02 08:51:33;;;;;;;;;;;12.20;99.90;;;;;;5069041;28;19920;-74
2022/03/02 08:54:00;;;;;;;;;;;12.20;99.90;;;;;;5069182;28;19929;-67
2022/03/02 08:56:26;;;;;;;;;;;12.20;99.90;;;;;;5072434;28;19928;-69
2022/03/02 08:58:52;;;;;;;;;;;12.30;99.90;;;;;;5072211;28;19977;-67
2022/03/02 09:01:19;;;;;;;;;;;12.40;99.90;;;;;;5072417;28;19925;-66
2022/03/02 09:03:46;;;;;;;;;;;12.50;99.90;;;;;;5073497;28;19936;-63
2022/03/02 09:06:12;;;;;;;;;;;12.50;99.90;;;;;;5071873;28;20587;-64
2022/03/02 09:08:38;;;;;;;;;;;12.50;99.90;;;;;;5073169;28;19983;-67
2022/03/02 09:11:04;;;;;;;;;;;12.60;99.90;;;;;;5072602;28;19931;-75
2022/03/02 09:13:29;;;;;;;;;;;12.40;99.90;;;;;;5070481;28;20359;-68
2022/03/02 09:15:55;;;;;;;;;;;11.80;99.90;;;;;;5105463;28;19924;-67
2022/03/02 09:18:21;;;;;;;;;;;10.90;99.90;;;;;;5071600;28;20282;-68
2022/03/02 09:20:50;;;;;;;;;;;10.00;99.90;;;;;;5071252;28;19928;-77
2022/03/02 09:23:16;;;;;;;;;;;9.50;99.90;;;;;;5071426;28;19931;-71
2022/03/02 09:25:46;;;;;;;;;;;9.20;99.90;;;;;;5055318;28;20362;-67
2022/03/02 09:28:11;;;;;;;;;;;9.00;99.90;;;;;;5105924;28;19924;-67
2022/03/02 09:30:37;;;;;;;;;;;8.90;99.90;;;;;;5071897;28;19977;-69
2022/03/02 09:33:04;;;;;;;;;;;8.90;99.90;;;;;;5072369;28;19925;-69
2022/03/02 09:35:30;;;;;;;;;;;8.80;99.90;;;;;;5072476;28;19928;-67
2022/03/02 09:37:56;;;;;;;;;;;8.80;99.90;;;;;;5072085;28;19932;-68
2022/03/02 09:40:25;;;;;;;;;;;8.90;99.90;;;;;;5072679;28;19924;-68
2022/03/02 09:42:55;;;;;;;;;;;8.80;99.90;;;;;;5072578;28;20290;-68
2022/03/02 09:45:21;;;;;;;;;;;8.70;99.90;;;;;;5072336;28;19924;-67
2022/03/02 09:47:52;;;;;;;;;;;8.40;99.90;;;;;;5072094;28;19955;-67
2022/03/02 09:50:18;;;;;;;;;;;8.30;99.90;;;;;;5071536;28;19931;-67
2022/03/02 09:52:45;;;;;;;;;;;8.10;99.90;;;;;;5072895;28;19946;-66
2022/03/02 09:55:13;;;;;;;;;;;8.10;99.90;;;;;;5055109;28;19928;-75
2022/03/02 09:57:43;;;;;;;;;;;8.00;99.90;;;;;;5055136;28;20015;-66
2022/03/02 10:00:09;;;;;;;;;;;8.00;99.90;;;;;;5071581;28;19932;-66
2022/03/02 10:02:36;;;;;;;;;;;8.00;99.90;;;;;;5072145;28;20015;-68
2022/03/02 10:05:08;;;;;;;;;;;8.10;99.90;;;;;;5071970;28;19932;-69
2022/03/02 10:07:35;;;;;;;;;;;8.10;99.90;;;;;;5071427;28;19979;-66
2022/03/02 10:10:08;;;;;;;;;;;8.00;99.90;;;;;;5072694;28;19925;-67
2022/03/02 10:12:34;;;;;;;;;;;8.10;99.90;;;;;;5105217;28;19932;-67
2022/03/02 10:15:00;;;;;;;;;;;8.00;99.90;;;;;;5072937;28;19929;-67
2022/03/02 10:17:33;;;;;;;;;;;8.10;99.90;;;;;;5071477;28;20023;-67
2022/03/02 10:20:03;;;;;;;;;;;8.10;99.90;;;;;;5073029;28;19928;-67
2022/03/02 10:22:41;;;;;;;;;;;8.10;99.90;;;;;;5072204;28;19932;-67
2022/03/02 10:25:08;;;;;;;;;;;8.10;99.90;;;;;;5054660;28;19925;-67
2022/03/02 10:27:35;;;;;;;;;;;8.10;99.90;;;;;;5071296;28;19927;-67
2022/03/02 10:30:04;;;;;;;;;;;8.10;99.90;;;;;;5105101;28;20015;-66
2022/03/02 10:32:33;;;;;;;;;;;8.10;99.90;;;;;;5070876;28;20011;-66
2022/03/02 10:35:01;;;;;;;;;;;8.10;99.90;;;;;;5071371;28;19924;-67
2022/03/02 10:37:27;;;;;;;;;;;8.20;99.90;;;;;;5070703;28;19925;-69
2022/03/02 10:39:56;;;;;;;;;;;8.20;99.90;;;;;;5072351;28;19998;-68
2022/03/02 10:42:24;;;;;;;;;;;8.30;99.90;;;;;;5053813;28;19932;-66
2022/03/02 10:44:58;;;;;;;;;;;8.30;99.90;;;;;;5071711;28;19929;-65
2022/03/02 10:47:24;;;;;;;;;;;8.40;99.90;;;;;;5050928;28;20005;-63
2022/03/02 10:49:52;;;;;;;;;;;8.40;99.90;;;;;;5071238;28;19924;-64
2022/03/02 10:52:21;;;;;;;;;;;8.40;99.90;;;;;;5069358;28;20293;-65
2022/03/02 10:54:48;;;;;;;;;;;8.40;99.90;;;;;;5070845;28;19924;-63
2022/03/02 10:57:15;;;;;;;;;;;8.40;99.90;;;;;;5071484;28;19934;-64
2022/03/02 10:59:43;;;;;;;;;;;8.40;99.90;;;;;;5070104;28;19924;-66
2022/03/02 11:02:09;;;;;;;;;;;8.40;99.90;;;;;;5071975;28;19924;-67
2022/03/02 11:04:36;;;;;;;;;;;8.40;99.90;;;;;;5070890;28;19971;-64
2022/03/02 11:07:02;;;;;;;;;;;8.40;99.90;;;;;;5070934;28;19925;-65
2022/03/02 11:09:31;;;;;;;;;;;8.50;99.90;;;;;;5086627;28;19932;-65
2022/03/02 11:11:58;;;;;;;;;;;8.50;99.90;;;;;;5070459;28;20332;-65
2022/03/02 11:14:24;;;;;;;;;;;8.60;99.90;;;;;;5070493;28;19929;-68
2022/03/02 11:16:50;;;;;;;;;;;8.60;99.90;;;;;;5070328;28;20423;-65
2022/03/02 11:19:16;;;;;;;;;;;8.60;99.90;;;;;;5071256;28;20073;-63
2022/03/02 11:21:43;;;;;;;;;;;8.70;99.90;;;;;;5069739;28;19974;-64
2022/03/02 11:24:13;;;;;;;;;;;8.70;99.90;;;;;;5070263;28;19966;-64
2022/03/02 11:26:40;;;;;;;;;;;8.70;99.90;;;;;;5069951;28;19929;-64
2022/03/02 11:29:11;;;;;;;;;;;8.70;99.90;;;;;;5070970;28;20301;-64
2022/03/02 11:31:55;;;;;;;;;;;8.70;99.90;;;;;;5069179;28;20385;-65
2022/03/02 11:34:29;;;;;;;;;;;8.80;99.90;;;;;;5070103;28;19924;-69
2022/03/02 11:36:55;;;;;;;;;;;8.80;99.90;;;;;;5069785;28;20378;-67
2022/03/02 11:39:23;;;;;;;;;;;8.90;99.90;;;;;;5069802;28;19982;-69
2022/03/02 11:41:55;;;;;;;;;;;8.90;99.90;;;;;;5070912;28;19925;-65
2022/03/02 11:44:29;;;;;;;;;;;8.90;99.90;;;;;;5069954;28;19980;-65
2022/03/02 11:46:56;;;;;;;;;;;9.00;99.90;;;;;;5069703;28;20285;-67
2022/03/02 11:49:36;;;;;;;;;;;9.00;99.90;;;;;;5069827;28;20314;-65
2022/03/02 11:52:09;;;;;;;;;;;9.00;99.90;;;;;;5071146;28;20122;-65
2022/03/02 11:54:46;;;;;;;;;;;9.00;99.90;;;;;;5069500;28;19931;-65
2022/03/02 11:57:13;;;;;;;;;;;9.00;99.90;;;;;;5069866;28;20396;-65
2022/03/02 11:59:39;;;;;;;;;;;9.00;99.90;;;;;;5068591;28;19928;-64
2022/03/02 12:02:13;;;;;;;;;;;9.00;99.90;;;;;;5069840;28;19924;-65
2022/03/02 12:04:39;;;;;;;;;;;9.00;99.90;;;;;;5069449;28;20413;-65
2022/03/02 12:07:05;;;;;;;;;;;9.00;99.90;;;;;;5069832;28;19925;-64
2022/03/02 12:09:38;;;;;;;;;;;9.10;99.90;;;;;;5052821;28;19924;-64
2022/03/02 12:12:18;;;;;;;;;;;9.10;99.90;;;;;;5069169;28;19924;-64
2022/03/02 12:14:45;;;;;;;;;;;9.00;99.90;;;;;;5069355;28;19930;-65
2022/03/02 12:17:19;;;;;;;;;;;9.10;99.90;;;;;;5103517;28;19931;-64
2022/03/02 12:19:46;;;;;;;;;;;9.10;99.90;;;;;;5073228;28;20427;-64
2022/03/02 12:22:13;;;;;;;;;;;9.10;99.90;;;;;;5072721;28;19925;-64
2022/03/02 12:24:39;;;;;;;;;;;9.10;99.90;;;;;;5072458;28;20397;-65
2022/03/02 12:27:06;;;;;;;;;;;9.10;99.90;;;;;;5057041;28;20269;-65
2022/03/02 12:29:33;;;;;;;;;;;9.20;99.90;;;;;;5072955;28;19986;-66
2022/03/02 12:32:03;;;;;;;;;;;9.20;99.90;;;;;;5073459;28;19929;-65
2022/03/02 12:34:31;;;;;;;;;;;9.20;99.90;;;;;;5073628;28;19924;-70
2022/03/02 12:36:56;;;;;;;;;;;9.20;99.90;;;;;;5073635;28;19964;-65
2022/03/02 12:39:22;;;;;;;;;;;9.20;99.90;;;;;;5073393;28;20389;-66
2022/03/02 12:41:48;;;;;;;;;;;9.20;99.90;;;;;;5072864;28;19924;-65
2022/03/02 12:44:13;;;;;;;;;;;9.20;99.90;;;;;;5056924;28;20340;-65
2022/03/02 12:46:39;;;;;;;;;;;9.20;99.90;;;;;;5072464;28;20023;-64
2022/03/02 12:49:06;;;;;;;;;;;9.20;99.90;;;;;;5073042;28;19925;-65
2022/03/02 12:51:37;;;;;;;;;;;9.20;99.90;;;;;;5073026;28;19925;-65
2022/03/02 12:54:02;;;;;;;;;;;9.20;99.90;;;;;;5073497;28;20349;-64
2022/03/02 12:56:28;;;;;;;;;;;9.20;99.90;;;;;;5073006;28;20003;-65
2022/03/02 12:58:54;;;;;;;;;;;9.10;99.90;;;;;;5056037;28;19973;-64
2022/03/02 13:01:19;;;;;;;;;;;9.20;99.90;;;;;;5073173;28;19929;-64
2022/03/02 13:03:47;;;;;;;;;;;9.20;99.90;;;;;;5072560;28;19932;-64
2022/03/02 13:06:16;;;;;;;;;;;9.20;99.90;;;;;;5074267;28;19932;-66
2022/03/02 13:08:50;;;;;;;;;;;9.20;99.90;;;;;;5056151;28;19999;-65
2022/03/02 13:11:23;;;;;;;;;;;9.30;99.90;;;;;;5073919;28;19924;-64
2022/03/02 13:13:48;;;;;;;;;;;9.20;99.90;;;;;;5072345;28;19947;-64
2022/03/02 13:16:16;;;;;;;;;;;9.30;99.90;;;;;;5072575;28;20374;-63
2022/03/02 13:18:42;;;;;;;;;;;9.30;99.90;;;;;;5072635;28;19925;-66
2022/03/02 13:21:07;;;;;;;;;;;9.20;99.90;;;;;;5072329;28;19932;-63
2022/03/02 13:23:34;;;;;;;;;;;9.20;99.90;;;;;;5073068;28;19931;-64
2022/03/02 13:26:00;;;;;;;;;;;9.20;99.90;;;;;;5071387;28;19925;-64
2022/03/02 13:28:27;;;;;;;;;;;9.20;99.90;;;;;;5072401;28;19932;-63
2022/03/02 13:31:14;;;;;;;;;;;9.20;99.90;;;;;;5071925;28;19978;-65
2022/03/02 13:33:55;;;;;;;;;;;9.10;99.90;;;;;;5073657;28;19929;-63
2022/03/02 13:36:47;;;;;;;;;;;9.10;99.90;;;;;;5072526;28;19931;-64
2022/03/02 13:39:14;;;;;;;;;;;9.10;99.90;;;;;;5069123;28;20400;-64
2022/03/02 13:41:41;;;;;;;;;;;9.10;99.90;;;;;;5055450;28;19929;-62
2022/03/02 13:44:26;;;;;;;;;;;9.20;99.90;;;;;;5073396;28;19931;-62
2022/03/02 13:47:24;;;;;;;;;;;9.20;99.90;;;;;;5071986;28;19920;-65
2022/03/02 13:49:58;;;;;;;;;;;9.10;99.90;;;;;;5038171;28;20010;-63
2022/03/02 13:52:26;;;;;;;;;;;9.10;99.90;;;;;;5073361;28;20323;-64
2022/03/02 13:54:52;;;;;;;;;;;9.10;99.90;;;;;;5055098;28;19925;-63
2022/03/02 13:57:18;;;;;;;;;;;9.20;99.90;;;;;;5073381;28;19924;-64
2022/03/02 13:59:44;;;;;;;;;;;9.20;99.90;;;;;;5054551;28;20000;-63
2022/03/02 14:02:10;;;;;;;;;;;9.10;99.90;;;;;;5072016;28;20069;-63
2022/03/02 14:04:41;;;;;;;;;;;9.10;99.90;;;;;;5070922;28;20453;-64
2022/03/02 14:07:07;;;;;;;;;;;9.00;99.90;;;;;;5071443;28;19991;-63
2022/03/02 14:09:33;;;;;;;;;;;9.00;99.90;;;;;;5054429;28;19972;-63
2022/03/02 14:12:02;;;;;;;;;;;9.10;99.90;;;;;;5072163;28;19928;-65
2022/03/02 14:14:29;;;;;;;;;;;9.10;99.90;;;;;;5072157;28;19928;-62
2022/03/02 14:17:00;;;;;;;;;;;9.00;99.90;;;;;;5070645;28;19925;-63
2022/03/02 14:19:28;;;;;;;;;;;9.10;99.90;;;;;;5071586;28;20332;-63
2022/03/02 14:21:55;;;;;;;;;;;9.10;99.90;;;;;;5054515;28;19924;-64
2022/03/02 14:24:21;;;;;;;;;;;9.00;99.90;;;;;;5071054;28;20023;-63
2022/03/02 14:26:59;;;;;;;;;;;9.10;99.90;;;;;;5071204;28;19924;-63
2022/03/02 14:29:25;;;;;;;;;;;9.10;99.90;;;;;;5068215;28;19924;-63
2022/03/02 14:31:57;;;;;;;;;;;9.10;99.90;;;;;;5070552;28;19975;-63